METAR EVRA 232050Z 22004KT 9999 OVC011 01/M01 Q1032 R18/510195 NOSIG =

Latvia vACC - Contacts

Contact Latvia vACC Management

Administration:

Martins Lezdins - vACC LV Director - This email address is being protected from spambots. You need JavaScript enabled to view it.

Janeks Tompolskis - vACC LV Training Director / Website - This email address is being protected from spambots. You need JavaScript enabled to view it.


Events / Request ATC coverage: This email address is being protected from spambots. You need JavaScript enabled to view it.

Matthew Smith - vACC LV Event Coordinator - This email address is being protected from spambots. You need JavaScript enabled to view it.

Kaspars Fogels - vACC LV Event Coordinator - This email address is being protected from spambots. You need JavaScript enabled to view it.

Erikas Batura - vACC LV Event Coordinator - This email address is being protected from spambots. You need JavaScript enabled to view it. 


ATC Training Instructors:

Arturs Akimovs - vACC LV Training Instructor - This email address is being protected from spambots. You need JavaScript enabled to view it.

Ilmārs Arsenovičs - vACC LV Training Instructor - This email address is being protected from spambots. You need JavaScript enabled to view it.

 

Controllers Online

PositionControllerOnline
EVRA_APPRyan Wilson00:37

Booked ATC Today

* Times are UTC

The time is now

UTC: 

Local: 

Latvia vACC on twitter